Time;durP1;ratioP1;P1;durP2;ratioP2;P2;SDS_P1;SDS_P2;PMS_P1;PMS_P2;Temp;Humidity;BMP_temperature;BMP_pressure;BME280_temperature;BME280_humidity;BME280_pressure;Samples;Min_cycle;Max_cycle;Signal;HPM_P1;HPM_P2
2023/01/24 00:00:00;;;;;;;2.8;2.7;;;;;;;2.7;100.0;103600;;;;
2023/01/24 00:01:00;;;;;;;2.8;2.7;;;;;;;2.6;100.0;103600;;;;
2023/01/24 00:02:00;;;;;;;2.8;2.7;;;;;;;2.6;100.0;103600;;;;
2023/01/24 00:03:00;;;;;;;2.8;2.7;;;;;;;2.7;100.0;103600;;;;
2023/01/24 00:04:00;;;;;;;2.8;2.7;;;;;;;2.7;100.0;103600;;;;
2023/01/24 00:05:00;;;;;;;2.8;2.7;;;;;;;2.7;100.0;103600;;;;
2023/01/24 00:06:00;;;;;;;2.8;2.7;;;;;;;2.7;100.0;103600;;;;
2023/01/24 00:07:00;;;;;;;2.6;2.5;;;;;;;2.7;100.0;103600;;;;
2023/01/24 00:08:00;;;;;;;2.6;2.5;;;;;;;2.7;100.0;103600;;;;
2023/01/24 00:09:00;;;;;;;2.6;2.5;;;;;;;2.8;100.0;103600;;;;
2023/01/24 00:10:00;;;;;;;2.6;2.5;;;;;;;2.8;100.0;103600;;;;
2023/01/24 00:11:01;;;;;;;2.6;2.5;;;;;;;2.7;100.0;103590;;;;
2023/01/24 00:12:00;;;;;;;2.6;2.5;;;;;;;2.7;100.0;103590;;;;
2023/01/24 00:13:00;;;;;;;2.6;2.5;;;;;;;2.7;100.0;103600;;;;
2023/01/24 00:14:00;;;;;;;2.6;2.5;;;;;;;2.7;100.0;103600;;;;
2023/01/24 00:15:00;;;;;;;2.6;2.5;;;;;;;2.8;100.0;103600;;;;
2023/01/24 00:16:01;;;;;;;2.6;2.5;;;;;;;2.8;100.0;103600;;;;
2023/01/24 00:17:00;;;;;;;2.6;2.5;;;;;;;2.6;100.0;103600;;;;
2023/01/24 00:18:01;;;;;;;2.6;2.5;;;;;;;2.6;100.0;103600;;;;
2023/01/24 00:19:00;;;;;;;2.6;2.5;;;;;;;2.6;100.0;103600;;;;
2023/01/24 00:20:00;;;;;;;2.6;2.5;;;;;;;2.6;100.0;103600;;;;
2023/01/24 00:21:03;;;;;;;2.6;2.5;;;;;;;2.6;100.0;103600;;;;
2023/01/24 00:22:01;;;;;;;2.6;2.5;;;;;;;2.6;100.0;103600;;;;
2023/01/24 00:23:00;;;;;;;2.6;2.5;;;;;;;2.6;100.0;103600;;;;
2023/01/24 00:24:00;;;;;;;2.6;2.5;;;;;;;2.6;100.0;103600;;;;
2023/01/24 00:25:00;;;;;;;2.6;2.5;;;;;;;2.7;100.0;103600;;;;
2023/01/24 00:26:00;;;;;;;2.6;2.5;;;;;;;2.7;100.0;103600;;;;
2023/01/24 00:27:01;;;;;;;2.3;2.3;;;;;;;2.6;100.0;103600;;;;
2023/01/24 00:28:00;;;;;;;2.3;2.3;;;;;;;2.6;100.0;103600;;;;
2023/01/24 00:29:00;;;;;;;2.3;2.3;;;;;;;2.7;100.0;103600;;;;
2023/01/24 00:30:01;;;;;;;2.3;2.3;;;;;;;2.7;100.0;103600;;;;
2023/01/24 00:31:00;;;;;;;2.3;2.3;;;;;;;2.7;100.0;103590;;;;
2023/01/24 00:32:00;;;;;;;2.3;2.3;;;;;;;2.7;100.0;103590;;;;
2023/01/24 00:33:00;;;;;;;2.3;2.3;;;;;;;2.7;100.0;103590;;;;
2023/01/24 00:34:00;;;;;;;2.3;2.3;;;;;;;2.7;100.0;103590;;;;
2023/01/24 00:35:00;;;;;;;2.3;2.3;;;;;;;2.5;100.0;103580;;;;
2023/01/24 00:36:00;;;;;;;2.3;2.3;;;;;;;2.5;100.0;103580;;;;
2023/01/24 00:37:00;;;;;;;2.3;2.3;;;;;;;2.5;100.0;103580;;;;
2023/01/24 00:38:00;;;;;;;2.3;2.3;;;;;;;2.5;100.0;103580;;;;
2023/01/24 00:39:00;;;;;;;2.3;2.3;;;;;;;2.5;100.0;103580;;;;
2023/01/24 00:40:00;;;;;;;2.3;2.3;;;;;;;2.5;100.0;103580;;;;
2023/01/24 00:41:00;;;;;;;2.3;2.3;;;;;;;2.6;100.0;103580;;;;
2023/01/24 00:42:00;;;;;;;2.3;2.3;;;;;;;2.6;100.0;103580;;;;
2023/01/24 00:43:00;;;;;;;2.3;2.3;;;;;;;2.7;100.0;103580;;;;
2023/01/24 00:44:00;;;;;;;2.3;2.3;;;;;;;2.7;100.0;103580;;;;
2023/01/24 00:45:00;;;;;;;2.3;2.3;;;;;;;2.7;100.0;103570;;;;
2023/01/24 00:46:00;;;;;;;2.3;2.3;;;;;;;2.7;100.0;103570;;;;
2023/01/24 00:47:00;;;;;;;2.7;2.6;;;;;;;2.7;100.0;103570;;;;
2023/01/24 00:48:00;;;;;;;2.7;2.6;;;;;;;2.7;100.0;103570;;;;
2023/01/24 00:49:00;;;;;;;2.7;2.6;;;;;;;2.6;100.0;103570;;;;
2023/01/24 00:50:00;;;;;;;2.7;2.6;;;;;;;2.6;100.0;103570;;;;
2023/01/24 00:51:00;;;;;;;2.7;2.6;;;;;;;2.5;100.0;103580;;;;
2023/01/24 00:52:00;;;;;;;2.7;2.6;;;;;;;2.5;100.0;103580;;;;
2023/01/24 00:53:00;;;;;;;2.7;2.6;;;;;;;2.6;100.0;103570;;;;
2023/01/24 00:54:00;;;;;;;2.7;2.6;;;;;;;2.6;100.0;103570;;;;
2023/01/24 00:55:00;;;;;;;2.7;2.6;;;;;;;2.7;100.0;103570;;;;
2023/01/24 00:56:00;;;;;;;2.7;2.6;;;;;;;2.7;100.0;103570;;;;
2023/01/24 00:57:00;;;;;;;2.7;2.6;;;;;;;2.5;100.0;103570;;;;
2023/01/24 00:58:00;;;;;;;2.7;2.6;;;;;;;2.5;100.0;103570;;;;
2023/01/24 00:59:00;;;;;;;2.7;2.6;;;;;;;2.5;100.0;103570;;;;
2023/01/24 01:00:00;;;;;;;2.7;2.6;;;;;;;2.5;100.0;103570;;;;
2023/01/24 01:01:03;;;;;;;2.7;2.6;;;;;;;2.5;100.0;103560;;;;
2023/01/24 01:02:00;;;;;;;2.7;2.6;;;;;;;2.5;100.0;103560;;;;
2023/01/24 01:03:00;;;;;;;2.7;2.6;;;;;;;2.5;100.0;103560;;;;
2023/01/24 01:04:00;;;;;;;2.7;2.6;;;;;;;2.5;100.0;103560;;;;
2023/01/24 01:05:00;;;;;;;2.7;2.6;;;;;;;2.6;100.0;103560;;;;
2023/01/24 01:06:02;;;;;;;2.7;2.6;;;;;;;2.6;100.0;103560;;;;
2023/01/24 01:07:00;;;;;;;2.4;2.4;;;;;;;2.7;100.0;103560;;;;
2023/01/24 01:08:00;;;;;;;2.4;2.4;;;;;;;2.7;100.0;103560;;;;
2023/01/24 01:09:00;;;;;;;2.4;2.4;;;;;;;2.7;100.0;103560;;;;
2023/01/24 01:10:00;;;;;;;2.4;2.4;;;;;;;2.7;100.0;103560;;;;
2023/01/24 01:11:00;;;;;;;2.4;2.4;;;;;;;2.7;100.0;103550;;;;
2023/01/24 01:12:00;;;;;;;2.4;2.4;;;;;;;2.7;100.0;103550;;;;
2023/01/24 01:13:00;;;;;;;2.4;2.4;;;;;;;2.8;100.0;103550;;;;
2023/01/24 01:14:00;;;;;;;2.4;2.4;;;;;;;2.8;100.0;103550;;;;
2023/01/24 01:15:00;;;;;;;2.4;2.4;;;;;;;2.7;100.0;103560;;;;
2023/01/24 01:16:01;;;;;;;2.4;2.4;;;;;;;2.7;100.0;103560;;;;
2023/01/24 01:17:00;;;;;;;2.4;2.4;;;;;;;2.8;100.0;103550;;;;
2023/01/24 01:18:00;;;;;;;2.4;2.4;;;;;;;2.8;100.0;103550;;;;
2023/01/24 01:19:00;;;;;;;2.4;2.4;;;;;;;2.7;100.0;103550;;;;
2023/01/24 01:20:00;;;;;;;2.4;2.4;;;;;;;2.7;100.0;103550;;;;
2023/01/24 01:21:00;;;;;;;2.4;2.4;;;;;;;2.7;100.0;103560;;;;
2023/01/24 01:22:00;;;;;;;2.4;2.4;;;;;;;2.7;100.0;103560;;;;
2023/01/24 01:23:00;;;;;;;2.4;2.4;;;;;;;2.7;100.0;103560;;;;
2023/01/24 01:24:00;;;;;;;2.4;2.4;;;;;;;2.7;100.0;103560;;;;
2023/01/24 01:25:00;;;;;;;2.4;2.4;;;;;;;2.8;100.0;103560;;;;
2023/01/24 01:26:01;;;;;;;2.4;2.4;;;;;;;2.8;100.0;103560;;;;
2023/01/24 01:27:00;;;;;;;2.3;2.3;;;;;;;2.7;100.0;103560;;;;
2023/01/24 01:28:00;;;;;;;2.3;2.3;;;;;;;2.7;100.0;103560;;;;
2023/01/24 01:29:00;;;;;;;2.3;2.3;;;;;;;2.6;100.0;103560;;;;
2023/01/24 01:30:00;;;;;;;2.3;2.3;;;;;;;2.6;100.0;103560;;;;
2023/01/24 01:31:00;;;;;;;2.3;2.3;;;;;;;2.6;100.0;103560;;;;
2023/01/24 01:32:00;;;;;;;2.3;2.3;;;;;;;2.6;100.0;103560;;;;
2023/01/24 01:33:00;;;;;;;2.3;2.3;;;;;;;2.7;100.0;103570;;;;
2023/01/24 01:34:00;;;;;;;2.3;2.3;;;;;;;2.7;100.0;103570;;;;
2023/01/24 01:35:00;;;;;;;2.3;2.3;;;;;;;2.6;100.0;103570;;;;
2023/01/24 01:36:00;;;;;;;2.3;2.3;;;;;;;2.6;100.0;103570;;;;
2023/01/24 01:37:00;;;;;;;2.3;2.3;;;;;;;2.5;100.0;103570;;;;
2023/01/24 01:38:00;;;;;;;2.3;2.3;;;;;;;2.5;100.0;103570;;;;
2023/01/24 01:39:00;;;;;;;2.3;2.3;;;;;;;2.5;100.0;103560;;;;
2023/01/24 01:40:01;;;;;;;2.3;2.3;;;;;;;2.5;100.0;103560;;;;
2023/01/24 01:41:00;;;;;;;2.3;2.3;;;;;;;2.5;100.0;103560;;;;
2023/01/24 01:42:00;;;;;;;2.3;2.3;;;;;;;2.5;100.0;103560;;;;
2023/01/24 01:43:00;;;;;;;2.3;2.3;;;;;;;2.5;100.0;103560;;;;
2023/01/24 01:45:10;;;;;;;2.3;2.3;;;;;;;2.5;100.0;103570;;;;
2023/01/24 01:46:10;;;;;;;2.3;2.3;;;;;;;2.5;100.0;103570;;;;
2023/01/24 01:47:00;;;;;;;3.0;2.9;;;;;;;2.5;100.0;103560;;;;
2023/01/24 01:48:02;;;;;;;3.0;2.9;;;;;;;2.5;100.0;103560;;;;
2023/01/24 01:49:02;;;;;;;3.0;2.9;;;;;;;2.4;100.0;103570;;;;
2023/01/24 01:50:00;;;;;;;3.0;2.9;;;;;;;2.4;100.0;103570;;;;
2023/01/24 01:51:00;;;;;;;3.0;2.9;;;;;;;2.6;100.0;103560;;;;
2023/01/24 01:52:03;;;;;;;3.0;2.9;;;;;;;2.6;100.0;103560;;;;
2023/01/24 01:53:00;;;;;;;3.0;2.9;;;;;;;2.6;100.0;103560;;;;
2023/01/24 01:54:03;;;;;;;3.0;2.9;;;;;;;2.6;100.0;103560;;;;
2023/01/24 01:55:06;;;;;;;3.0;2.9;;;;;;;2.6;100.0;103570;;;;
2023/01/24 01:56:03;;;;;;;3.0;2.9;;;;;;;2.6;100.0;103570;;;;
2023/01/24 01:57:03;;;;;;;3.0;2.9;;;;;;;2.4;100.0;103570;;;;
2023/01/24 01:58:01;;;;;;;3.0;2.9;;;;;;;2.4;100.0;103570;;;;
2023/01/24 01:59:04;;;;;;;3.0;2.9;;;;;;;2.5;100.0;103570;;;;
2023/01/24 02:00:04;;;;;;;3.0;2.9;;;;;;;2.5;100.0;103570;;;;
2023/01/24 02:01:01;;;;;;;3.0;2.9;;;;;;;2.5;100.0;103570;;;;
2023/01/24 02:02:01;;;;;;;3.0;2.9;;;;;;;2.5;100.0;103570;;;;
2023/01/24 02:04:06;;;;;;;3.0;2.9;;;;;;;2.6;100.0;103560;;;;
2023/01/24 02:05:02;;;;;;;3.0;2.9;;;;;;;2.5;100.0;103560;;;;
2023/01/24 02:06:00;;;;;;;3.0;2.9;;;;;;;2.5;100.0;103560;;;;
2023/01/24 02:07:10;;;;;;;2.7;2.6;;;;;;;2.4;100.0;103560;;;;
2023/01/24 02:08:04;;;;;;;2.7;2.6;;;;;;;2.4;100.0;103560;;;;
2023/01/24 02:09:01;;;;;;;2.7;2.6;;;;;;;2.4;100.0;103560;;;;
2023/01/24 02:10:00;;;;;;;2.7;2.6;;;;;;;2.4;100.0;103560;;;;
2023/01/24 02:12:03;;;;;;;2.7;2.6;;;;;;;2.6;100.0;103560;;;;
2023/01/24 02:13:00;;;;;;;2.7;2.6;;;;;;;2.6;100.0;103560;;;;
2023/01/24 02:16:03;;;;;;;2.7;2.6;;;;;;;2.5;100.0;103560;;;;
2023/01/24 02:17:00;;;;;;;2.7;2.6;;;;;;;2.5;100.0;103550;;;;
2023/01/24 02:18:00;;;;;;;2.7;2.6;;;;;;;2.5;100.0;103550;;;;
2023/01/24 02:19:00;;;;;;;2.7;2.6;;;;;;;2.4;100.0;103550;;;;
2023/01/24 02:20:10;;;;;;;2.7;2.6;;;;;;;2.4;100.0;103550;;;;
2023/01/24 02:21:02;;;;;;;2.7;2.6;;;;;;;2.4;100.0;103550;;;;
2023/01/24 02:22:07;;;;;;;2.7;2.6;;;;;;;2.4;100.0;103550;;;;
2023/01/24 02:23:06;;;;;;;2.7;2.6;;;;;;;2.4;100.0;103550;;;;
2023/01/24 02:24:05;;;;;;;2.7;2.6;;;;;;;2.4;100.0;103550;;;;
2023/01/24 02:25:06;;;;;;;2.7;2.6;;;;;;;2.3;100.0;103550;;;;
2023/01/24 02:26:04;;;;;;;2.7;2.6;;;;;;;2.3;100.0;103550;;;;
2023/01/24 02:27:00;;;;;;;2.4;2.4;;;;;;;2.3;100.0;103550;;;;
2023/01/24 02:28:02;;;;;;;2.4;2.4;;;;;;;2.3;100.0;103550;;;;
2023/01/24 02:29:02;;;;;;;2.4;2.4;;;;;;;2.4;100.0;103560;;;;
2023/01/24 02:30:00;;;;;;;2.4;2.4;;;;;;;2.4;100.0;103560;;;;
2023/01/24 02:31:01;;;;;;;2.4;2.4;;;;;;;2.4;100.0;103560;;;;
2023/01/24 02:32:02;;;;;;;2.4;2.4;;;;;;;2.4;100.0;103560;;;;
2023/01/24 02:33:08;;;;;;;2.4;2.4;;;;;;;2.5;100.0;103550;;;;
2023/01/24 02:34:00;;;;;;;2.4;2.4;;;;;;;2.5;100.0;103550;;;;
2023/01/24 02:35:00;;;;;;;2.4;2.4;;;;;;;2.5;100.0;103560;;;;
2023/01/24 02:36:10;;;;;;;2.4;2.4;;;;;;;2.5;100.0;103560;;;;
2023/01/24 02:37:03;;;;;;;2.4;2.4;;;;;;;2.5;100.0;103560;;;;
2023/01/24 02:38:03;;;;;;;2.4;2.4;;;;;;;2.5;100.0;103560;;;;
2023/01/24 02:39:10;;;;;;;2.4;2.4;;;;;;;2.5;100.0;103560;;;;
2023/01/24 02:40:04;;;;;;;2.4;2.4;;;;;;;2.5;100.0;103560;;;;
2023/01/24 02:41:06;;;;;;;2.4;2.4;;;;;;;2.5;100.0;103560;;;;
2023/01/24 02:42:04;;;;;;;2.4;2.4;;;;;;;2.5;100.0;103560;;;;
2023/01/24 02:43:03;;;;;;;2.4;2.4;;;;;;;2.4;100.0;103560;;;;
2023/01/24 02:44:02;;;;;;;2.4;2.4;;;;;;;2.4;100.0;103560;;;;
2023/01/24 02:45:03;;;;;;;2.4;2.4;;;;;;;2.4;100.0;103570;;;;
2023/01/24 02:46:00;;;;;;;2.4;2.4;;;;;;;2.4;100.0;103570;;;;
2023/01/24 02:47:01;;;;;;;2.4;2.4;;;;;;;2.3;100.0;103560;;;;
2023/01/24 02:48:00;;;;;;;2.4;2.4;;;;;;;2.3;100.0;103560;;;;
2023/01/24 02:49:01;;;;;;;2.4;2.4;;;;;;;2.3;100.0;103560;;;;
2023/01/24 02:50:01;;;;;;;2.4;2.4;;;;;;;2.3;100.0;103560;;;;
2023/01/24 02:54:00;;;;;;;2.4;2.4;;;;;;;2.4;100.0;103560;;;;
2023/01/24 02:55:00;;;;;;;2.4;2.4;;;;;;;2.3;100.0;103560;;;;
2023/01/24 02:58:07;;;;;;;2.4;2.4;;;;;;;2.4;100.0;103560;;;;
2023/01/24 02:59:00;;;;;;;2.4;2.4;;;;;;;2.4;100.0;103550;;;;
2023/01/24 03:00:00;;;;;;;2.4;2.4;;;;;;;2.4;100.0;103550;;;;
2023/01/24 03:01:00;;;;;;;2.4;2.4;;;;;;;2.4;100.0;103550;;;;
2023/01/24 03:02:00;;;;;;;2.4;2.4;;;;;;;2.4;100.0;103550;;;;
2023/01/24 03:03:00;;;;;;;2.4;2.4;;;;;;;2.3;100.0;103560;;;;
2023/01/24 03:04:00;;;;;;;2.4;2.4;;;;;;;2.3;100.0;103560;;;;
2023/01/24 03:05:00;;;;;;;2.4;2.4;;;;;;;2.3;100.0;103560;;;;
2023/01/24 03:06:00;;;;;;;2.4;2.4;;;;;;;2.3;100.0;103560;;;;
2023/01/24 03:07:00;;;;;;;2.4;2.4;;;;;;;2.3;100.0;103560;;;;
2023/01/24 03:08:00;;;;;;;2.4;2.4;;;;;;;2.3;100.0;103560;;;;
2023/01/24 03:09:18;;;;;;;2.4;2.4;;;;;;;2.4;100.0;103560;;;;
2023/01/24 03:10:00;;;;;;;2.4;2.4;;;;;;;2.4;100.0;103560;;;;
2023/01/24 03:11:00;;;;;;;2.4;2.4;;;;;;;2.2;100.0;103560;;;;
2023/01/24 03:35:00;;;;;;;2.6;2.5;;;;;;;2.5;100.0;103550;;;;
2023/01/24 03:36:01;;;;;;;2.6;2.5;;;;;;;2.5;100.0;103550;;;;
2023/01/24 03:37:01;;;;;;;2.6;2.5;;;;;;;2.5;100.0;103550;;;;
2023/01/24 03:40:00;;;;;;;2.6;2.5;;;;;;;2.5;100.0;103540;;;;
2023/01/24 03:41:00;;;;;;;2.6;2.5;;;;;;;2.5;100.0;103540;;;;
2023/01/24 03:42:00;;;;;;;2.6;2.5;;;;;;;2.5;100.0;103540;;;;
2023/01/24 03:43:01;;;;;;;2.6;2.5;;;;;;;2.5;100.0;103550;;;;
2023/01/24 03:44:00;;;;;;;2.6;2.5;;;;;;;2.5;100.0;103550;;;;
2023/01/24 03:45:00;;;;;;;2.6;2.5;;;;;;;2.4;100.0;103540;;;;
2023/01/24 03:46:00;;;;;;;2.4;2.4;;;;;;;2.4;100.0;103540;;;;
2023/01/24 03:47:00;;;;;;;2.4;2.4;;;;;;;2.5;100.0;103540;;;;
2023/01/24 03:48:02;;;;;;;2.4;2.4;;;;;;;2.5;100.0;103540;;;;
2023/01/24 03:49:00;;;;;;;2.4;2.4;;;;;;;2.5;100.0;103540;;;;
2023/01/24 03:53:04;;;;;;;2.4;2.4;;;;;;;2.5;100.0;103550;;;;
2023/01/24 03:54:00;;;;;;;2.4;2.4;;;;;;;2.5;100.0;103550;;;;
2023/01/24 03:55:00;;;;;;;2.4;2.4;;;;;;;2.6;100.0;103550;;;;
2023/01/24 03:56:01;;;;;;;2.4;2.4;;;;;;;2.6;100.0;103550;;;;
2023/01/24 03:57:02;;;;;;;2.4;2.4;;;;;;;2.5;100.0;103550;;;;
2023/01/24 03:58:00;;;;;;;2.4;2.4;;;;;;;2.5;100.0;103550;;;;
2023/01/24 03:59:00;;;;;;;2.4;2.4;;;;;;;2.5;100.0;103550;;;;
2023/01/24 04:00:00;;;;;;;2.4;2.4;;;;;;;2.5;100.0;103550;;;;
2023/01/24 04:01:01;;;;;;;2.4;2.4;;;;;;;2.4;100.0;103550;;;;
2023/01/24 04:02:00;;;;;;;2.4;2.4;;;;;;;2.4;100.0;103550;;;;
2023/01/24 04:03:00;;;;;;;2.4;2.4;;;;;;;2.2;100.0;103550;;;;
2023/01/24 04:04:00;;;;;;;2.4;2.4;;;;;;;2.2;100.0;103550;;;;
2023/01/24 04:06:00;;;;;;;2.5;2.5;;;;;;;2.2;100.0;103560;;;;
2023/01/24 04:07:00;;;;;;;2.5;2.5;;;;;;;2.2;100.0;103550;;;;
2023/01/24 04:08:00;;;;;;;2.5;2.5;;;;;;;2.2;100.0;103550;;;;
2023/01/24 04:09:00;;;;;;;2.5;2.5;;;;;;;2.2;100.0;103550;;;;
2023/01/24 04:10:00;;;;;;;2.5;2.5;;;;;;;2.2;100.0;103550;;;;
2023/01/24 04:11:00;;;;;;;2.5;2.5;;;;;;;2.2;100.0;103550;;;;
2023/01/24 04:12:00;;;;;;;2.5;2.5;;;;;;;2.2;100.0;103550;;;;
2023/01/24 04:13:00;;;;;;;2.5;2.5;;;;;;;2.2;100.0;103550;;;;
2023/01/24 04:14:00;;;;;;;2.5;2.5;;;;;;;2.2;100.0;103550;;;;
2023/01/24 04:15:00;;;;;;;2.5;2.5;;;;;;;2.2;100.0;103550;;;;
2023/01/24 04:16:00;;;;;;;2.5;2.5;;;;;;;2.2;100.0;103550;;;;
2023/01/24 04:17:00;;;;;;;2.5;2.5;;;;;;;2.3;100.0;103540;;;;
2023/01/24 04:18:01;;;;;;;2.5;2.5;;;;;;;2.3;100.0;103540;;;;
2023/01/24 04:19:00;;;;;;;2.5;2.5;;;;;;;2.2;100.0;103540;;;;
2023/01/24 04:20:00;;;;;;;2.5;2.5;;;;;;;2.2;100.0;103540;;;;
2023/01/24 04:21:01;;;;;;;2.5;2.5;;;;;;;2.3;100.0;103540;;;;
2023/01/24 04:22:00;;;;;;;2.5;2.5;;;;;;;2.3;100.0;103540;;;;
2023/01/24 04:23:01;;;;;;;2.5;2.5;;;;;;;2.1;100.0;103550;;;;
2023/01/24 04:24:00;;;;;;;2.5;2.5;;;;;;;2.1;100.0;103550;;;;
2023/01/24 04:25:00;;;;;;;2.5;2.5;;;;;;;2.1;100.0;103550;;;;
2023/01/24 04:26:00;;;;;;;2.4;2.4;;;;;;;2.1;100.0;103550;;;;
2023/01/24 04:27:00;;;;;;;2.4;2.4;;;;;;;2.2;100.0;103550;;;;
2023/01/24 04:28:00;;;;;;;2.4;2.4;;;;;;;2.2;100.0;103550;;;;
2023/01/24 04:29:00;;;;;;;2.4;2.4;;;;;;;2.2;100.0;103550;;;;
2023/01/24 04:30:00;;;;;;;2.4;2.4;;;;;;;2.2;100.0;103550;;;;
2023/01/24 04:31:01;;;;;;;2.4;2.4;;;;;;;2.1;100.0;103550;;;;
2023/01/24 04:32:00;;;;;;;2.4;2.4;;;;;;;2.1;100.0;103550;;;;
2023/01/24 04:33:00;;;;;;;2.4;2.4;;;;;;;2.2;100.0;103550;;;;
2023/01/24 04:34:00;;;;;;;2.4;2.4;;;;;;;2.2;100.0;103550;;;;
2023/01/24 04:35:00;;;;;;;2.4;2.4;;;;;;;2.3;100.0;103550;;;;
2023/01/24 04:36:00;;;;;;;2.4;2.4;;;;;;;2.3;100.0;103550;;;;
2023/01/24 04:37:00;;;;;;;2.4;2.4;;;;;;;2.3;100.0;103550;;;;
2023/01/24 04:38:01;;;;;;;2.4;2.4;;;;;;;2.3;100.0;103550;;;;
2023/01/24 04:39:00;;;;;;;2.4;2.4;;;;;;;2.3;100.0;103560;;;;
2023/01/24 04:40:01;;;;;;;2.4;2.4;;;;;;;2.3;100.0;103560;;;;
2023/01/24 04:41:01;;;;;;;2.4;2.4;;;;;;;2.3;100.0;103560;;;;
2023/01/24 04:42:00;;;;;;;2.4;2.4;;;;;;;2.3;100.0;103560;;;;
2023/01/24 04:43:00;;;;;;;2.4;2.4;;;;;;;2.3;100.0;103560;;;;
2023/01/24 04:44:00;;;;;;;2.4;2.4;;;;;;;2.3;100.0;103560;;;;
2023/01/24 04:45:00;;;;;;;2.4;2.4;;;;;;;2.3;100.0;103560;;;;
2023/01/24 04:46:00;;;;;;;2.3;2.3;;;;;;;2.3;100.0;103560;;;;
2023/01/24 04:47:00;;;;;;;2.3;2.3;;;;;;;2.3;100.0;103560;;;;
2023/01/24 04:48:00;;;;;;;2.3;2.3;;;;;;;2.3;100.0;103560;;;;
2023/01/24 04:49:00;;;;;;;2.3;2.3;;;;;;;2.2;100.0;103560;;;;
2023/01/24 04:50:00;;;;;;;2.3;2.3;;;;;;;2.2;100.0;103560;;;;
2023/01/24 04:51:00;;;;;;;2.3;2.3;;;;;;;2.2;100.0;103560;;;;
2023/01/24 04:52:00;;;;;;;2.3;2.3;;;;;;;2.2;100.0;103560;;;;
2023/01/24 04:53:00;;;;;;;2.3;2.3;;;;;;;2.2;100.0;103560;;;;
2023/01/24 04:54:00;;;;;;;2.3;2.3;;;;;;;2.2;100.0;103560;;;;
2023/01/24 04:55:00;;;;;;;2.3;2.3;;;;;;;2.2;100.0;103560;;;;
2023/01/24 04:56:01;;;;;;;2.3;2.3;;;;;;;2.2;100.0;103560;;;;
2023/01/24 04:57:00;;;;;;;2.3;2.3;;;;;;;2.1;100.0;103560;;;;
2023/01/24 04:58:00;;;;;;;2.3;2.3;;;;;;;2.1;100.0;103560;;;;
2023/01/24 04:59:00;;;;;;;2.3;2.3;;;;;;;2.1;100.0;103560;;;;
2023/01/24 05:00:00;;;;;;;2.3;2.3;;;;;;;2.1;100.0;103560;;;;
2023/01/24 05:01:03;;;;;;;2.3;2.3;;;;;;;2.1;100.0;103550;;;;
2023/01/24 05:02:00;;;;;;;2.3;2.3;;;;;;;2.1;100.0;103550;;;;
2023/01/24 05:03:00;;;;;;;2.3;2.3;;;;;;;2.1;100.0;103560;;;;
2023/01/24 05:04:00;;;;;;;2.3;2.3;;;;;;;2.1;100.0;103560;;;;
2023/01/24 05:05:00;;;;;;;2.3;2.3;;;;;;;2.1;100.0;103560;;;;
2023/01/24 05:06:00;;;;;;;2.8;2.7;;;;;;;2.1;100.0;103560;;;;
2023/01/24 05:07:00;;;;;;;2.8;2.7;;;;;;;2.2;100.0;103560;;;;
2023/01/24 05:08:00;;;;;;;2.8;2.7;;;;;;;2.2;100.0;103560;;;;
2023/01/24 05:09:00;;;;;;;2.8;2.7;;;;;;;2.2;100.0;103560;;;;
2023/01/24 05:10:00;;;;;;;2.8;2.7;;;;;;;2.2;100.0;103560;;;;
2023/01/24 05:11:01;;;;;;;2.8;2.7;;;;;;;2.1;100.0;103550;;;;
2023/01/24 05:12:00;;;;;;;2.8;2.7;;;;;;;2.1;100.0;103550;;;;
2023/01/24 05:13:00;;;;;;;2.8;2.7;;;;;;;2.2;100.0;103560;;;;
2023/01/24 05:14:00;;;;;;;2.8;2.7;;;;;;;2.2;100.0;103560;;;;
2023/01/24 05:15:00;;;;;;;2.8;2.7;;;;;;;2.2;100.0;103560;;;;
2023/01/24 05:16:00;;;;;;;2.8;2.7;;;;;;;2.2;100.0;103560;;;;
2023/01/24 05:17:00;;;;;;;2.8;2.7;;;;;;;2.2;100.0;103560;;;;
2023/01/24 05:18:01;;;;;;;2.8;2.7;;;;;;;2.2;100.0;103560;;;;
2023/01/24 05:19:00;;;;;;;2.8;2.7;;;;;;;2.2;100.0;103560;;;;
2023/01/24 05:20:00;;;;;;;2.8;2.7;;;;;;;2.2;100.0;103560;;;;
2023/01/24 05:21:09;;;;;;;2.8;2.7;;;;;;;2.3;100.0;103570;;;;
2023/01/24 05:22:00;;;;;;;2.8;2.7;;;;;;;2.3;100.0;103570;;;;
2023/01/24 05:23:00;;;;;;;2.8;2.7;;;;;;;2.2;100.0;103560;;;;
2023/01/24 05:24:00;;;;;;;2.8;2.7;;;;;;;2.2;100.0;103560;;;;
2023/01/24 05:25:00;;;;;;;2.8;2.7;;;;;;;2.1;100.0;103570;;;;
2023/01/24 05:26:01;;;;;;;2.6;2.5;;;;;;;2.1;100.0;103570;;;;
2023/01/24 05:27:00;;;;;;;2.6;2.5;;;;;;;2.0;100.0;103570;;;;
2023/01/24 05:28:00;;;;;;;2.6;2.5;;;;;;;2.0;100.0;103570;;;;
2023/01/24 05:29:00;;;;;;;2.6;2.5;;;;;;;1.9;100.0;103570;;;;
2023/01/24 05:30:00;;;;;;;2.6;2.5;;;;;;;1.9;100.0;103570;;;;
2023/01/24 05:31:01;;;;;;;2.6;2.5;;;;;;;2.0;100.0;103570;;;;
2023/01/24 05:32:00;;;;;;;2.6;2.5;;;;;;;2.0;100.0;103570;;;;
2023/01/24 05:33:00;;;;;;;2.6;2.5;;;;;;;1.9;100.0;103570;;;;
2023/01/24 05:34:00;;;;;;;2.6;2.5;;;;;;;1.9;100.0;103570;;;;
2023/01/24 05:35:00;;;;;;;2.6;2.5;;;;;;;1.9;100.0;103570;;;;
2023/01/24 05:36:01;;;;;;;2.6;2.5;;;;;;;1.9;100.0;103570;;;;
2023/01/24 05:37:00;;;;;;;2.6;2.5;;;;;;;2.0;100.0;103570;;;;
2023/01/24 05:38:00;;;;;;;2.6;2.5;;;;;;;2.0;100.0;103570;;;;
2023/01/24 05:39:00;;;;;;;2.6;2.5;;;;;;;2.1;100.0;103570;;;;
2023/01/24 05:40:00;;;;;;;2.6;2.5;;;;;;;2.1;100.0;103570;;;;
2023/01/24 05:41:01;;;;;;;2.6;2.5;;;;;;;2.1;100.0;103580;;;;
2023/01/24 05:42:00;;;;;;;2.6;2.5;;;;;;;2.1;100.0;103580;;;;
2023/01/24 05:43:00;;;;;;;2.6;2.5;;;;;;;2.1;100.0;103580;;;;
2023/01/24 05:44:00;;;;;;;2.6;2.5;;;;;;;2.1;100.0;103580;;;;
2023/01/24 05:45:00;;;;;;;2.6;2.5;;;;;;;2.1;100.0;103580;;;;
2023/01/24 05:46:06;;;;;;;3.0;2.9;;;;;;;2.1;100.0;103580;;;;
2023/01/24 05:47:00;;;;;;;3.0;2.9;;;;;;;2.0;100.0;103580;;;;
2023/01/24 05:48:00;;;;;;;3.0;2.9;;;;;;;2.0;100.0;103580;;;;
2023/01/24 05:49:00;;;;;;;3.0;2.9;;;;;;;2.0;100.0;103590;;;;
2023/01/24 05:50:00;;;;;;;3.0;2.9;;;;;;;2.0;100.0;103590;;;;
2023/01/24 05:51:01;;;;;;;3.0;2.9;;;;;;;1.9;100.0;103590;;;;
2023/01/24 05:52:00;;;;;;;3.0;2.9;;;;;;;1.9;100.0;103590;;;;
2023/01/24 05:53:01;;;;;;;3.0;2.9;;;;;;;2.0;100.0;103590;;;;
2023/01/24 05:54:00;;;;;;;3.0;2.9;;;;;;;2.0;100.0;103590;;;;
2023/01/24 05:55:00;;;;;;;3.0;2.9;;;;;;;2.0;100.0;103600;;;;
2023/01/24 05:56:03;;;;;;;3.0;2.9;;;;;;;2.0;100.0;103600;;;;
2023/01/24 05:57:00;;;;;;;3.0;2.9;;;;;;;1.9;100.0;103600;;;;
2023/01/24 05:58:00;;;;;;;3.0;2.9;;;;;;;1.9;100.0;103600;;;;
2023/01/24 05:59:01;;;;;;;3.0;2.9;;;;;;;1.8;100.0;103600;;;;
2023/01/24 06:00:00;;;;;;;3.0;2.9;;;;;;;1.8;100.0;103600;;;;
2023/01/24 06:01:00;;;;;;;3.0;2.9;;;;;;;2.1;100.0;103600;;;;
2023/01/24 06:02:00;;;;;;;3.0;2.9;;;;;;;2.1;100.0;103600;;;;
2023/01/24 06:03:01;;;;;;;3.0;2.9;;;;;;;2.0;100.0;103590;;;;
2023/01/24 06:04:00;;;;;;;3.0;2.9;;;;;;;2.0;100.0;103590;;;;
2023/01/24 06:05:00;;;;;;;3.0;2.9;;;;;;;1.9;100.0;103600;;;;
2023/01/24 06:06:00;;;;;;;2.7;2.6;;;;;;;1.9;100.0;103600;;;;
2023/01/24 06:07:00;;;;;;;2.7;2.6;;;;;;;2.0;100.0;103600;;;;
2023/01/24 06:08:00;;;;;;;2.7;2.6;;;;;;;2.0;100.0;103600;;;;
2023/01/24 06:09:00;;;;;;;2.7;2.6;;;;;;;2.0;100.0;103600;;;;
2023/01/24 06:10:00;;;;;;;2.7;2.6;;;;;;;2.0;100.0;103600;;;;
2023/01/24 06:11:03;;;;;;;2.7;2.6;;;;;;;2.1;100.0;103600;;;;
2023/01/24 06:12:00;;;;;;;2.7;2.6;;;;;;;2.1;100.0;103600;;;;
2023/01/24 06:13:00;;;;;;;2.7;2.6;;;;;;;2.1;100.0;103610;;;;
2023/01/24 06:14:00;;;;;;;2.7;2.6;;;;;;;2.1;100.0;103610;;;;
2023/01/24 06:15:00;;;;;;;2.7;2.6;;;;;;;2.1;100.0;103600;;;;
2023/01/24 06:16:01;;;;;;;2.7;2.6;;;;;;;2.1;100.0;103600;;;;
2023/01/24 06:17:00;;;;;;;2.7;2.6;;;;;;;2.1;100.0;103600;;;;
2023/01/24 06:18:00;;;;;;;2.7;2.6;;;;;;;2.1;100.0;103600;;;;
2023/01/24 06:19:00;;;;;;;2.7;2.6;;;;;;;2.1;100.0;103600;;;;
2023/01/24 06:20:00;;;;;;;2.7;2.6;;;;;;;2.1;100.0;103600;;;;
2023/01/24 06:21:04;;;;;;;2.7;2.6;;;;;;;2.1;100.0;103600;;;;
2023/01/24 06:22:03;;;;;;;2.7;2.6;;;;;;;2.1;100.0;103600;;;;
2023/01/24 06:23:00;;;;;;;2.7;2.6;;;;;;;2.1;100.0;103600;;;;
2023/01/24 06:24:01;;;;;;;2.7;2.6;;;;;;;2.1;100.0;103600;;;;
2023/01/24 06:25:00;;;;;;;2.8;2.7;;;;;;;2.1;100.0;103600;;;;
2023/01/24 06:26:00;;;;;;;2.8;2.7;;;;;;;2.1;100.0;103600;;;;
2023/01/24 06:27:00;;;;;;;2.8;2.7;;;;;;;2.1;100.0;103600;;;;
2023/01/24 06:28:00;;;;;;;2.8;2.7;;;;;;;2.1;100.0;103600;;;;
2023/01/24 06:29:00;;;;;;;2.8;2.7;;;;;;;2.0;100.0;103600;;;;
2023/01/24 06:30:02;;;;;;;2.8;2.7;;;;;;;2.0;100.0;103600;;;;
2023/01/24 06:31:05;;;;;;;2.8;2.7;;;;;;;2.0;100.0;103600;;;;
2023/01/24 06:32:08;;;;;;;2.8;2.7;;;;;;;2.0;100.0;103600;;;;
2023/01/24 06:33:02;;;;;;;2.8;2.7;;;;;;;2.0;100.0;103600;;;;
2023/01/24 06:34:06;;;;;;;2.8;2.7;;;;;;;2.0;100.0;103600;;;;
2023/01/24 06:35:05;;;;;;;2.8;2.7;;;;;;;2.0;100.0;103600;;;;
2023/01/24 06:36:01;;;;;;;2.8;2.7;;;;;;;2.0;100.0;103600;;;;
2023/01/24 06:37:03;;;;;;;2.8;2.7;;;;;;;1.7;100.0;103600;;;;
2023/01/24 06:38:00;;;;;;;2.8;2.7;;;;;;;1.7;100.0;103600;;;;
2023/01/24 06:39:00;;;;;;;2.8;2.7;;;;;;;1.7;100.0;103610;;;;
2023/01/24 06:40:00;;;;;;;2.8;2.7;;;;;;;1.7;100.0;103610;;;;
2023/01/24 06:41:01;;;;;;;2.8;2.7;;;;;;;1.7;100.0;103620;;;;
2023/01/24 06:42:00;;;;;;;2.8;2.7;;;;;;;1.7;100.0;103620;;;;
2023/01/24 06:43:00;;;;;;;2.8;2.7;;;;;;;1.8;100.0;103620;;;;
2023/01/24 06:44:00;;;;;;;2.8;2.7;;;;;;;1.8;100.0;103620;;;;
2023/01/24 06:45:00;;;;;;;2.5;2.5;;;;;;;1.8;100.0;103620;;;;
2023/01/24 06:46:00;;;;;;;2.5;2.5;;;;;;;1.8;100.0;103620;;;;
2023/01/24 06:47:00;;;;;;;2.5;2.5;;;;;;;1.7;100.0;103620;;;;
2023/01/24 06:48:03;;;;;;;2.5;2.5;;;;;;;1.7;100.0;103620;;;;
2023/01/24 06:49:00;;;;;;;2.5;2.5;;;;;;;1.8;100.0;103620;;;;
2023/01/24 06:50:01;;;;;;;2.5;2.5;;;;;;;1.8;100.0;103620;;;;
2023/01/24 06:51:00;;;;;;;2.5;2.5;;;;;;;1.8;100.0;103620;;;;
2023/01/24 06:52:00;;;;;;;2.5;2.5;;;;;;;1.8;100.0;103620;;;;
2023/01/24 06:53:00;;;;;;;2.5;2.5;;;;;;;1.7;100.0;103620;;;;
2023/01/24 06:54:04;;;;;;;2.5;2.5;;;;;;;1.7;100.0;103620;;;;
2023/01/24 06:55:00;;;;;;;2.5;2.5;;;;;;;1.8;100.0;103620;;;;
2023/01/24 06:56:00;;;;;;;2.5;2.5;;;;;;;1.8;100.0;103620;;;;
2023/01/24 06:57:01;;;;;;;2.5;2.5;;;;;;;1.8;100.0;103620;;;;
2023/01/24 06:58:01;;;;;;;2.5;2.5;;;;;;;1.8;100.0;103620;;;;
2023/01/24 06:59:00;;;;;;;2.5;2.5;;;;;;;1.8;100.0;103620;;;;
2023/01/24 07:00:00;;;;;;;2.5;2.5;;;;;;;1.8;100.0;103620;;;;
2023/01/24 07:01:00;;;;;;;2.5;2.5;;;;;;;1.7;100.0;103620;;;;
2023/01/24 07:02:00;;;;;;;2.5;2.5;;;;;;;1.7;100.0;103620;;;;
2023/01/24 07:03:02;;;;;;;2.5;2.5;;;;;;;1.7;100.0;103620;;;;
2023/01/24 07:04:00;;;;;;;2.5;2.5;;;;;;;1.7;100.0;103620;;;;
2023/01/24 07:05:00;;;;;;;2.9;2.8;;;;;;;1.7;100.0;103620;;;;
2023/01/24 07:06:00;;;;;;;2.9;2.8;;;;;;;1.7;100.0;103620;;;;
2023/01/24 07:07:00;;;;;;;2.9;2.8;;;;;;;1.8;100.0;103620;;;;
2023/01/24 07:08:00;;;;;;;2.9;2.8;;;;;;;1.8;100.0;103620;;;;